Time;durP1;ratioP1;P1;durP2;ratioP2;P2;SDS_P1;SDS_P2;PMS_P1;PMS_P2;Temp;Humidity;BMP_temperature;BMP_pressure;BME280_temperature;BME280_humidity;BME280_pressure;Samples;Min_cycle;Max_cycle;Signal;HPM_P1;HPM_P2
2022/12/11 00:01:55;;;;;;;38.65;20.73;;;-2.70;99.90;;;;;;5055477;28;20124;-69
2022/12/11 00:04:21;;;;;;;34.00;18.63;;;-2.70;99.90;;;;;;5053279;28;20441;-70
2022/12/11 00:06:49;;;;;;;38.75;18.92;;;-2.70;99.90;;;;;;5048678;28;20025;-69
2022/12/11 00:09:16;;;;;;;38.60;17.98;;;-2.70;99.90;;;;;;5051792;28;20515;-70
2022/12/11 00:11:42;;;;;;;30.17;17.50;;;-2.70;99.90;;;;;;5049494;28;20028;-69
2022/12/11 00:14:07;;;;;;;29.30;15.90;;;-2.90;99.90;;;;;;5055626;28;20470;-69
2022/12/11 00:16:33;;;;;;;36.20;16.50;;;-2.90;99.90;;;;;;5054982;28;20505;-70
2022/12/11 00:18:59;;;;;;;30.27;15.50;;;-2.90;99.90;;;;;;5056796;28;20040;-69
2022/12/11 00:21:24;;;;;;;28.83;16.08;;;-3.00;99.90;;;;;;5056505;28;20374;-70
2022/12/11 00:23:50;;;;;;;31.88;17.17;;;-3.00;99.90;;;;;;5048532;28;20425;-70
2022/12/11 00:26:16;;;;;;;29.88;16.73;;;-3.10;99.90;;;;;;5053164;28;20080;-70
2022/12/11 00:28:43;;;;;;;31.80;16.58;;;-3.10;99.90;;;;;;5051415;28;20137;-69
2022/12/11 00:31:13;;;;;;;36.13;19.02;;;-3.10;99.90;;;;;;5053362;28;20043;-69
2022/12/11 00:33:39;;;;;;;35.03;18.27;;;-3.10;99.90;;;;;;5033797;28;20036;-69
2022/12/11 00:36:20;;;;;;;37.90;19.20;;;-3.10;99.90;;;;;;5051553;28;20044;-69
2022/12/11 00:38:46;;;;;;;41.85;20.42;;;-3.20;99.90;;;;;;5050870;28;20083;-70
2022/12/11 00:41:12;;;;;;;36.95;20.00;;;-3.20;99.90;;;;;;5049483;28;20088;-70
2022/12/11 00:43:38;;;;;;;33.90;19.45;;;-3.10;99.90;;;;;;5051889;28;20033;-70
2022/12/11 00:46:04;;;;;;;40.13;20.20;;;-3.20;99.90;;;;;;5050631;28;20123;-70
2022/12/11 00:48:30;;;;;;;42.47;19.00;;;-3.10;99.90;;;;;;5056186;28;21345;-70
2022/12/11 00:50:55;;;;;;;39.20;18.50;;;-3.10;99.90;;;;;;5052663;28;20113;-69
2022/12/11 00:53:21;;;;;;;37.05;19.95;;;-3.00;99.90;;;;;;5051495;28;20270;-69
2022/12/11 00:55:47;;;;;;;40.28;20.17;;;-3.10;99.90;;;;;;5052126;28;22144;-70
2022/12/11 00:58:13;;;;;;;41.45;21.02;;;-3.10;99.90;;;;;;5057635;28;20055;-70
2022/12/11 01:00:40;;;;;;;40.20;19.52;;;-3.10;99.90;;;;;;5057936;28;20025;-70
2022/12/11 01:03:08;;;;;;;39.33;19.98;;;-3.20;99.90;;;;;;5055237;28;20070;-69
2022/12/11 01:05:33;;;;;;;41.65;19.85;;;-3.20;99.90;;;;;;5043191;28;20095;-69
2022/12/11 01:07:59;;;;;;;42.80;20.30;;;-3.20;99.90;;;;;;5036915;28;20477;-69
2022/12/11 01:10:25;;;;;;;39.50;20.15;;;-3.20;99.90;;;;;;5055751;28;20056;-69
2022/12/11 01:12:58;;;;;;;37.72;19.52;;;-3.20;99.90;;;;;;5057313;28;20047;-70
2022/12/11 01:15:27;;;;;;;34.97;19.10;;;-3.10;99.90;;;;;;5053054;28;20025;-69
2022/12/11 01:17:54;;;;;;;38.03;19.88;;;-3.10;99.90;;;;;;5046990;28;20032;-69
2022/12/11 01:20:21;;;;;;;38.35;18.98;;;-3.10;99.90;;;;;;5046060;28;20523;-69
2022/12/11 01:22:47;;;;;;;31.58;18.50;;;-3.10;99.90;;;;;;5044706;28;20035;-70
2022/12/11 01:25:13;;;;;;;36.13;18.65;;;-3.10;99.90;;;;;;5049543;28;20029;-69
2022/12/11 01:27:39;;;;;;;33.05;19.23;;;-3.20;99.90;;;;;;5056792;28;20487;-69
2022/12/11 01:30:07;;;;;;;36.70;20.13;;;-3.20;99.90;;;;;;5048075;28;20115;-70
2022/12/11 01:32:34;;;;;;;35.63;19.55;;;-3.30;99.90;;;;;;5042858;28;20108;-69
2022/12/11 01:35:01;;;;;;;36.67;20.23;;;-3.40;99.90;;;;;;5057966;28;20029;-70
2022/12/11 01:37:27;;;;;;;38.20;18.70;;;-3.40;99.90;;;;;;5056722;28;20064;-69
2022/12/11 01:39:53;;;;;;;35.67;18.92;;;-3.40;99.90;;;;;;5063036;28;20128;-69
2022/12/11 01:42:19;;;;;;;38.58;18.73;;;-3.40;99.90;;;;;;5059105;28;20029;-70
2022/12/11 01:44:45;;;;;;;38.03;18.73;;;-3.40;99.90;;;;;;5059393;28;20078;-69
2022/12/11 01:47:11;;;;;;;34.15;19.08;;;-3.30;99.90;;;;;;5071944;28;20028;-70
2022/12/11 01:49:39;;;;;;;32.72;18.98;;;-3.40;99.90;;;;;;5062878;28;20036;-70
2022/12/11 01:52:16;;;;;;;39.38;20.42;;;-3.30;99.90;;;;;;5058817;28;20518;-69
2022/12/11 01:54:43;;;;;;;36.13;18.98;;;-3.30;99.90;;;;;;5058486;28;20047;-69
2022/12/11 01:57:11;;;;;;;38.08;19.88;;;-3.30;99.90;;;;;;5059268;28;20428;-69
2022/12/11 01:59:40;;;;;;;35.70;19.25;;;-3.40;99.90;;;;;;5072743;28;20325;-69
2022/12/11 02:02:21;;;;;;;39.00;20.20;;;-3.40;99.90;;;;;;5060534;28;20382;-69
2022/12/11 02:04:47;;;;;;;43.28;21.33;;;-3.40;99.90;;;;;;5062215;28;20100;-70
2022/12/11 02:07:14;;;;;;;48.60;21.65;;;-3.40;99.90;;;;;;5043833;28;20110;-70
2022/12/11 02:09:42;;;;;;;35.08;20.02;;;-3.40;99.90;;;;;;5041382;28;20606;-70
2022/12/11 02:12:38;;;;;;;41.05;20.30;;;-3.40;99.90;;;;;;5047051;28;20043;-70
2022/12/11 02:15:28;;;;;;;43.17;19.63;;;-3.40;99.90;;;;;;5059707;28;20530;-69
2022/12/11 02:18:24;;;;;;;36.92;18.58;;;-3.40;99.90;;;;;;5055954;28;20123;-69
2022/12/11 02:21:12;;;;;;;38.60;19.10;;;-3.40;99.90;;;;;;5010572;28;20435;-69
2022/12/11 02:23:43;;;;;;;37.85;18.58;;;-3.40;99.90;;;;;;5058319;28;20182;-70
2022/12/11 02:26:22;;;;;;;33.83;18.50;;;-3.40;99.90;;;;;;5061273;28;20063;-70
2022/12/11 02:28:58;;;;;;;33.25;20.30;;;-3.40;99.90;;;;;;5060183;28;20036;-70
2022/12/11 02:31:41;;;;;;;42.45;19.77;;;-3.30;99.90;;;;;;5055547;28;20029;-69
2022/12/11 02:34:19;;;;;;;31.20;17.98;;;-3.30;99.90;;;;;;5048679;28;20050;-70
2022/12/11 02:36:50;;;;;;;34.72;18.50;;;-3.30;99.90;;;;;;5048868;28;20055;-69
2022/12/11 02:39:18;;;;;;;36.83;18.63;;;-3.40;99.90;;;;;;5057370;28;20132;-69
2022/12/11 02:41:48;;;;;;;31.63;17.42;;;-3.50;99.90;;;;;;5058229;28;20029;-69
2022/12/11 02:44:16;;;;;;;28.85;17.30;;;-3.40;99.90;;;;;;5058482;28;20043;-69
2022/12/11 02:46:43;;;;;;;31.85;18.23;;;-3.40;99.90;;;;;;5057253;28;20032;-70
2022/12/11 02:49:12;;;;;;;34.70;17.35;;;-3.30;99.90;;;;;;5061109;28;20033;-70
2022/12/11 02:51:40;;;;;;;29.48;16.65;;;-3.20;99.90;;;;;;5057956;28;20514;-69
2022/12/11 02:54:10;;;;;;;38.00;18.98;;;-3.20;99.90;;;;;;5059844;28;20036;-69
2022/12/11 02:56:42;;;;;;;29.75;16.13;;;-3.20;99.90;;;;;;5041591;28;20130;-69
2022/12/11 02:59:10;;;;;;;;;;;-3.20;99.90;;;;;;5046843;28;20037;-69
2022/12/11 03:01:35;;;;;;;28.92;15.23;;;-3.30;99.90;;;;;;5053604;28;19924;-69
2022/12/11 03:04:01;;;;;;;35.90;16.92;;;-3.30;99.90;;;;;;5058517;28;20377;-69
2022/12/11 03:06:35;;;;;;;29.75;15.60;;;-3.40;99.90;;;;;;5037705;28;20496;-69
2022/12/11 03:09:00;;;;;;;31.45;15.60;;;-3.40;99.90;;;;;;5056732;28;20444;-69
2022/12/11 03:11:26;;;;;;;30.65;16.00;;;-3.40;99.90;;;;;;5055302;28;20035;-69
2022/12/11 03:13:52;;;;;;;28.65;16.23;;;-3.30;99.90;;;;;;5067609;28;20377;-69
2022/12/11 03:16:37;;;;;;;30.90;16.02;;;-3.40;99.90;;;;;;5067917;28;20527;-70
2022/12/11 03:19:11;;;;;;;33.83;16.98;;;-3.40;99.90;;;;;;5056251;28;20032;-70
2022/12/11 03:21:54;;;;;;;34.05;15.63;;;-3.50;99.90;;;;;;5045168;28;20486;-70
2022/12/11 03:24:34;;;;;;;32.78;15.63;;;-3.50;99.90;;;;;;5053127;28;20086;-69
2022/12/11 03:27:13;;;;;;;27.73;15.43;;;-3.50;99.90;;;;;;5056263;28;20024;-69
2022/12/11 03:29:47;;;;;;;33.25;16.52;;;-3.60;99.90;;;;;;5038002;28;20748;-70
2022/12/11 03:32:21;;;;;;;32.50;16.52;;;-3.70;99.90;;;;;;5055000;28;20044;-69
2022/12/11 03:34:56;;;;;;;27.35;16.08;;;-3.70;99.90;;;;;;5047070;28;20033;-69
2022/12/11 03:37:25;;;;;;;28.00;14.95;;;-3.80;99.90;;;;;;5055126;28;20303;-69
2022/12/11 03:39:55;;;;;;;31.63;15.20;;;-3.80;99.90;;;;;;5052414;28;20098;-69
2022/12/11 03:42:23;;;;;;;29.42;15.07;;;-3.80;99.90;;;;;;5060238;28;20052;-69
2022/12/11 03:44:50;;;;;;;28.30;14.63;;;-3.80;99.90;;;;;;5063494;28;20029;-70
2022/12/11 03:47:21;;;;;;;29.52;14.63;;;-3.80;99.90;;;;;;5057338;28;20029;-69
2022/12/11 03:49:48;;;;;;;30.40;15.55;;;-3.80;99.90;;;;;;5053448;28;20358;-69
2022/12/11 03:52:15;;;;;;;29.45;15.27;;;-3.80;99.90;;;;;;5055638;28;20048;-69
2022/12/11 03:54:44;;;;;;;29.85;15.05;;;-3.80;99.90;;;;;;5058371;28;20028;-69
2022/12/11 03:57:15;;;;;;;33.67;16.23;;;-3.80;99.90;;;;;;5054926;28;20074;-69
2022/12/11 03:59:41;;;;;;;28.25;15.98;;;-3.90;99.90;;;;;;5057676;28;20496;-70
2022/12/11 04:02:09;;;;;;;34.75;15.88;;;-4.00;99.90;;;;;;5054930;28;20032;-70
2022/12/11 04:04:40;;;;;;;27.98;14.77;;;-4.00;99.90;;;;;;5057318;28;20279;-69
2022/12/11 04:07:06;;;;;;;32.37;16.23;;;-3.90;99.90;;;;;;5053936;28;20118;-69
2022/12/11 04:09:32;;;;;;;28.77;15.65;;;-3.90;99.90;;;;;;5056288;28;20036;-70
2022/12/11 04:11:58;;;;;;;28.40;15.57;;;-4.00;99.90;;;;;;5055275;28;20043;-69
2022/12/11 04:17:09;;;;;;;32.33;15.77;;;-3.90;99.90;;;;;;5049456;28;20195;-69
2022/12/11 04:25:05;;;;;;;32.28;15.70;;;-3.70;99.90;;;;;;5059942;28;20090;-70
2022/12/11 04:27:49;;;;;;;30.88;15.73;;;-3.70;99.90;;;;;;5037214;28;20045;-70
2022/12/11 04:30:19;;;;;;;33.25;15.90;;;-3.60;99.90;;;;;;5044879;28;20265;-69
2022/12/11 04:32:45;;;;;;;31.00;15.85;;;-3.60;99.90;;;;;;5049319;28;20043;-70
2022/12/11 04:35:12;;;;;;;29.38;15.07;;;-3.50;99.90;;;;;;5055244;28;20040;-69
2022/12/11 04:37:38;;;;;;;29.60;16.27;;;-3.50;99.90;;;;;;5051467;28;20115;-69
2022/12/11 04:40:07;;;;;;;31.00;15.02;;;-3.40;99.90;;;;;;5055592;28;20055;-70
2022/12/11 04:42:32;;;;;;;33.55;16.05;;;-3.50;99.90;;;;;;5057692;28;20032;-69
2022/12/11 04:44:58;;;;;;;28.83;16.00;;;-3.40;99.90;;;;;;5070454;28;20036;-69
2022/12/11 04:47:24;;;;;;;30.88;15.20;;;-3.40;99.90;;;;;;5053697;28;20032;-69
2022/12/11 04:49:50;;;;;;;32.22;16.48;;;-3.40;99.90;;;;;;5056642;28;20029;-69
2022/12/11 04:52:16;;;;;;;28.67;15.32;;;-3.50;99.90;;;;;;5035523;28;20068;-69
2022/12/11 04:54:42;;;;;;;29.73;14.85;;;-3.50;99.90;;;;;;5053582;28;20025;-70
2022/12/11 04:57:08;;;;;;;26.45;14.65;;;-3.70;99.90;;;;;;5041318;28;20185;-68
2022/12/11 04:59:34;;;;;;;29.63;13.07;;;-3.70;99.90;;;;;;5053281;28;20495;-69
2022/12/11 05:01:59;;;;;;;28.75;14.52;;;-3.80;99.90;;;;;;5050224;28;20094;-69
2022/12/11 05:04:30;;;;;;;27.25;14.90;;;-3.80;99.90;;;;;;5054568;28;20050;-70
2022/12/11 05:06:56;;;;;;;28.27;14.18;;;-3.80;99.90;;;;;;5070317;28;20024;-70
2022/12/11 05:09:22;;;;;;;27.63;15.45;;;-3.80;99.90;;;;;;5057516;28;20048;-71
2022/12/11 05:11:47;;;;;;;27.85;14.30;;;-3.80;99.90;;;;;;5070438;28;20042;-70
2022/12/11 05:14:13;;;;;;;32.80;14.60;;;-3.80;99.90;;;;;;5063468;28;20211;-68
2022/12/11 05:16:38;;;;;;;29.27;14.68;;;-3.80;99.90;;;;;;5057799;28;20025;-70
2022/12/11 05:19:04;;;;;;;31.10;15.38;;;-3.70;99.90;;;;;;5057132;28;20043;-69
2022/12/11 05:21:30;;;;;;;26.20;14.30;;;-3.70;99.90;;;;;;5038587;28;20036;-70
2022/12/11 05:23:55;;;;;;;29.67;14.93;;;-3.70;99.90;;;;;;5054993;28;20033;-70
2022/12/11 05:26:21;;;;;;;36.95;18.17;;;-3.80;99.90;;;;;;5061328;28;20412;-70
2022/12/11 05:28:52;;;;;;;35.20;16.85;;;-3.90;99.90;;;;;;5051006;28;20633;-70
2022/12/11 05:31:20;;;;;;;26.08;15.43;;;-3.90;99.90;;;;;;5055125;28;20415;-70
2022/12/11 05:33:47;;;;;;;27.85;15.10;;;-4.00;99.90;;;;;;5056707;28;20265;-70
2022/12/11 05:36:16;;;;;;;26.52;14.90;;;-3.90;99.90;;;;;;5053493;28;20029;-70
2022/12/11 05:38:42;;;;;;;26.98;14.43;;;-4.00;99.90;;;;;;5057039;28;20045;-70
2022/12/11 05:41:07;;;;;;;28.85;14.35;;;-4.00;99.90;;;;;;5051627;28;20345;-71
2022/12/11 05:43:35;;;;;;;28.73;14.52;;;-4.00;99.90;;;;;;5059899;28;20121;-71
2022/12/11 05:46:09;;;;;;;28.73;15.02;;;-4.10;99.90;;;;;;5073510;28;20479;-70
2022/12/11 05:48:35;;;;;;;31.70;14.98;;;-4.10;99.90;;;;;;5056028;28;20028;-70
2022/12/11 05:51:02;;;;;;;26.98;13.90;;;-4.00;99.90;;;;;;5055835;28;20695;-70
2022/12/11 05:53:29;;;;;;;29.73;15.45;;;-4.10;99.90;;;;;;5060463;28;20462;-70
2022/12/11 05:56:01;;;;;;;28.55;13.70;;;-4.10;99.90;;;;;;5056324;28;20538;-70
2022/12/11 05:58:27;;;;;;;30.58;14.27;;;-4.10;99.90;;;;;;5044188;28;20040;-71
2022/12/11 06:00:53;;;;;;;24.40;14.23;;;-4.10;99.90;;;;;;5055886;28;20112;-70
2022/12/11 06:03:18;;;;;;;30.73;15.15;;;-4.10;99.90;;;;;;5056231;28;20119;-70
2022/12/11 06:05:44;;;;;;;33.63;15.40;;;-4.10;99.90;;;;;;5053097;28;20131;-70
2022/12/11 06:08:09;;;;;;;152.68;55.10;;;-4.20;99.90;;;;;;5070828;28;20416;-70
2022/12/11 06:10:35;;;;;;;37.35;19.50;;;-4.20;99.90;;;;;;5057330;28;20025;-70
2022/12/11 06:13:01;;;;;;;28.90;15.13;;;-4.10;99.90;;;;;;5060611;28;20495;-70
2022/12/11 06:15:26;;;;;;;26.67;14.73;;;-4.10;99.90;;;;;;5056498;28;20369;-71
2022/12/11 06:17:52;;;;;;;28.15;14.15;;;-4.00;99.90;;;;;;5057947;28;20169;-71
2022/12/11 06:20:17;;;;;;;29.98;14.35;;;-4.10;99.90;;;;;;5059570;28;20093;-70
2022/12/11 06:22:43;;;;;;;30.92;14.93;;;-4.10;99.90;;;;;;5056978;28;20369;-71
2022/12/11 06:25:09;;;;;;;32.03;14.55;;;-4.50;99.90;;;;;;5054981;28;20029;-71
2022/12/11 06:27:34;;;;;;;28.30;13.27;;;-4.70;99.90;;;;;;5056122;28;20924;-70
2022/12/11 06:30:00;;;;;;;28.65;14.50;;;-4.60;99.90;;;;;;5055038;28;20067;-70
2022/12/11 06:32:26;;;;;;;27.67;13.93;;;-4.60;99.90;;;;;;5058086;28;20491;-71
2022/12/11 06:34:52;;;;;;;28.95;14.82;;;-4.60;99.90;;;;;;5057239;28;20025;-70
2022/12/11 06:37:17;;;;;;;31.42;14.27;;;-4.50;99.90;;;;;;5052575;28;20033;-70
2022/12/11 06:39:43;;;;;;;27.13;13.57;;;-4.40;99.90;;;;;;5035440;28;20051;-70
2022/12/11 06:42:09;;;;;;;23.98;13.95;;;-4.30;99.90;;;;;;5058224;28;20039;-70
2022/12/11 06:44:34;;;;;;;31.42;13.90;;;-4.20;99.90;;;;;;5058036;28;20515;-70
2022/12/11 06:47:00;;;;;;;31.15;14.45;;;-4.20;99.90;;;;;;5053038;28;20025;-70
2022/12/11 06:49:26;;;;;;;24.58;13.38;;;-4.10;99.90;;;;;;5059125;28;20032;-70
2022/12/11 06:51:51;;;;;;;24.35;12.95;;;-4.10;99.90;;;;;;5048092;28;20064;-70
2022/12/11 06:54:17;;;;;;;28.20;14.68;;;-4.40;99.90;;;;;;5040026;28;20134;-70
2022/12/11 06:56:42;;;;;;;32.70;16.42;;;-4.40;99.90;;;;;;5051110;28;20032;-70
2022/12/11 06:59:11;;;;;;;43.40;19.60;;;-4.40;99.90;;;;;;5058493;28;20143;-71
2022/12/11 07:01:37;;;;;;;34.17;17.65;;;-4.40;99.90;;;;;;5053876;28;20032;-70
2022/12/11 07:04:03;;;;;;;35.17;16.73;;;-4.40;99.90;;;;;;5053922;28;20041;-70
2022/12/11 07:06:29;;;;;;;27.30;14.65;;;-4.30;99.90;;;;;;5055290;28;20046;-70
2022/12/11 07:08:55;;;;;;;31.70;16.20;;;-4.30;99.90;;;;;;5058463;28;20111;-71
2022/12/11 07:11:21;;;;;;;31.75;16.00;;;-4.30;99.90;;;;;;5056980;28;20024;-70
2022/12/11 07:13:47;;;;;;;36.40;16.88;;;-4.30;99.90;;;;;;5043667;28;20630;-70
2022/12/11 07:16:15;;;;;;;30.42;14.60;;;-4.20;99.90;;;;;;5058331;28;20059;-70
2022/12/11 07:18:46;;;;;;;31.80;15.02;;;-4.10;99.90;;;;;;5059564;28;20127;-70
2022/12/11 07:21:13;;;;;;;30.73;15.50;;;-4.10;99.90;;;;;;5055637;28;20036;-70
2022/12/11 07:23:39;;;;;;;31.13;14.43;;;-4.10;99.90;;;;;;5037605;28;20579;-70
2022/12/11 07:26:06;;;;;;;33.25;14.77;;;-4.10;99.90;;;;;;5051073;28;20028;-70
2022/12/11 07:28:33;;;;;;;31.23;15.02;;;-4.20;99.90;;;;;;5053057;28;20078;-70
2022/12/11 07:31:03;;;;;;;36.10;16.23;;;-4.20;99.90;;;;;;5054208;28;20032;-70
2022/12/11 07:33:28;;;;;;;52.53;21.92;;;-4.10;99.90;;;;;;5052213;28;20380;-70
2022/12/11 07:35:54;;;;;;;37.15;16.33;;;-4.20;99.90;;;;;;5053363;28;20025;-71
2022/12/11 07:38:19;;;;;;;33.20;15.82;;;-4.20;99.90;;;;;;5049968;28;20602;-70
2022/12/11 07:40:45;;;;;;;35.13;15.20;;;-4.10;99.90;;;;;;5052156;28;20832;-70
2022/12/11 07:43:10;;;;;;;26.27;13.95;;;-4.10;99.90;;;;;;5057504;28;20024;-69
2022/12/11 07:45:37;;;;;;;39.13;17.67;;;-4.10;99.90;;;;;;5054378;28;20086;-70
2022/12/11 07:48:02;;;;;;;33.53;16.60;;;-4.00;99.90;;;;;;5056744;28;20369;-70
2022/12/11 07:50:28;;;;;;;30.83;16.20;;;-4.00;99.90;;;;;;5051122;28;20188;-70
2022/12/11 07:52:54;;;;;;;31.25;15.43;;;-4.10;99.90;;;;;;5043727;28;20021;-70
2022/12/11 07:55:19;;;;;;;32.22;14.68;;;-4.00;99.90;;;;;;5048875;28;20055;-70
2022/12/11 07:57:45;;;;;;;26.63;13.55;;;-4.00;99.90;;;;;;5046660;28;20483;-70
2022/12/11 08:00:11;;;;;;;25.70;14.10;;;-4.00;99.90;;;;;;5025468;28;20047;-70
2022/12/11 08:02:37;;;;;;;25.58;13.57;;;-4.00;99.90;;;;;;5039365;28;20025;-70
2022/12/11 08:05:03;;;;;;;28.85;14.93;;;-4.10;99.90;;;;;;5047285;28;20032;-70
2022/12/11 08:07:29;;;;;;;24.60;12.98;;;-4.00;99.90;;;;;;5053669;28;20032;-69
2022/12/11 08:09:54;;;;;;;25.23;12.90;;;-4.00;99.90;;;;;;5039670;28;20105;-69
2022/12/11 08:12:20;;;;;;;28.88;14.55;;;-3.90;99.90;;;;;;5048607;28;20436;-69
2022/12/11 08:14:45;;;;;;;24.73;12.93;;;-3.90;99.90;;;;;;5057032;28;20032;-70
2022/12/11 08:17:11;;;;;;;26.83;13.63;;;-4.10;99.90;;;;;;5053875;28;20032;-70
2022/12/11 08:19:36;;;;;;;25.20;13.80;;;-4.10;99.90;;;;;;5057899;28;20194;-69
2022/12/11 08:22:03;;;;;;;95.68;38.40;;;-4.00;99.90;;;;;;5030071;28;20066;-69
2022/12/11 08:24:28;;;;;;;32.92;15.32;;;-3.90;99.90;;;;;;5050981;28;20503;-70
2022/12/11 08:26:54;;;;;;;26.15;13.45;;;-3.80;99.90;;;;;;5057121;28;20028;-69
2022/12/11 08:29:19;;;;;;;24.33;13.07;;;-3.80;99.90;;;;;;5054510;28;20035;-70
2022/12/11 08:31:46;;;;;;;21.77;13.23;;;-3.60;99.90;;;;;;5056753;28;20055;-71
2022/12/11 08:34:12;;;;;;;25.15;12.10;;;-3.50;99.90;;;;;;5045161;28;20494;-69
2022/12/11 08:36:39;;;;;;;28.73;14.27;;;-3.40;99.90;;;;;;5041997;28;20063;-70
2022/12/11 08:39:05;;;;;;;24.35;13.38;;;-3.30;99.90;;;;;;5044705;28;20037;-70
2022/12/11 08:41:31;;;;;;;25.63;13.07;;;-3.20;99.90;;;;;;5047229;28;20028;-70
2022/12/11 08:43:59;;;;;;;23.38;13.05;;;-3.10;99.90;;;;;;5052037;28;20032;-69
2022/12/11 08:46:27;;;;;;;22.08;11.82;;;-2.90;99.90;;;;;;5044975;28;20114;-69
2022/12/11 08:48:53;;;;;;;24.70;13.55;;;-2.80;99.90;;;;;;5053869;28;20036;-70
2022/12/11 08:51:22;;;;;;;25.98;12.75;;;-2.80;99.90;;;;;;5044658;28;20209;-69
2022/12/11 08:53:49;;;;;;;23.88;14.05;;;-2.70;99.90;;;;;;5045425;28;20447;-69
2022/12/11 08:56:17;;;;;;;22.83;13.65;;;-2.60;99.90;;;;;;5047556;28;20094;-69
2022/12/11 08:58:43;;;;;;;27.25;13.48;;;-2.50;99.90;;;;;;5045913;28;20036;-70
2022/12/11 09:01:11;;;;;;;29.17;13.85;;;-2.30;99.90;;;;;;5041846;28;20039;-69
2022/12/11 09:03:38;;;;;;;26.42;14.40;;;-2.20;99.90;;;;;;5039413;28;20074;-70
2022/12/11 09:06:10;;;;;;;24.90;13.20;;;-2.10;99.90;;;;;;5046528;28;20035;-69
2022/12/11 09:08:37;;;;;;;26.10;14.20;;;-2.00;99.90;;;;;;5046382;28;20028;-70
2022/12/11 09:11:08;;;;;;;22.35;12.70;;;-2.10;99.90;;;;;;5021205;28;20078;-70
2022/12/11 09:13:34;;;;;;;23.42;12.98;;;-2.20;99.90;;;;;;5046884;28;20027;-70
2022/12/11 09:16:00;;;;;;;25.75;13.23;;;-2.00;99.90;;;;;;5043074;28;20048;-70
2022/12/11 09:18:26;;;;;;;28.35;12.63;;;-1.70;99.90;;;;;;5047160;28;20492;-70
2022/12/11 09:21:02;;;;;;;24.25;13.63;;;-1.60;99.90;;;;;;5053079;28;20186;-70
2022/12/11 09:23:28;;;;;;;33.25;14.77;;;-1.40;99.90;;;;;;5050734;28;20032;-70
2022/12/11 09:25:54;;;;;;;27.92;15.55;;;-1.20;99.90;;;;;;5027977;28;20044;-70
2022/12/11 09:28:20;;;;;;;26.25;12.60;;;-1.10;99.90;;;;;;5045683;28;20160;-70
2022/12/11 09:30:46;;;;;;;23.08;13.48;;;-0.90;99.00;;;;;;5043377;28;20031;-71
2022/12/11 09:33:11;;;;;;;23.48;13.23;;;-0.80;98.50;;;;;;5048014;28;20388;-70
2022/12/11 09:35:37;;;;;;;28.30;13.75;;;-0.70;98.00;;;;;;5046822;28;20328;-72
2022/12/11 09:38:03;;;;;;;28.00;14.05;;;-0.70;97.30;;;;;;5050244;28;20047;-71
2022/12/11 09:40:30;;;;;;;63.53;24.58;;;-0.50;97.70;;;;;;5055023;28;20111;-70
2022/12/11 09:43:29;;;;;;;44.33;21.20;;;-0.40;97.40;;;;;;5050093;28;20032;-71
2022/12/11 09:45:55;;;;;;;22.30;12.68;;;-0.30;98.10;;;;;;5048537;28;20534;-72
2022/12/11 09:48:24;;;;;;;24.00;13.07;;;-0.30;97.80;;;;;;5052076;28;20024;-72
2022/12/11 09:50:53;;;;;;;25.38;13.15;;;-0.30;97.70;;;;;;5044621;28;20039;-70
2022/12/11 09:53:36;;;;;;;23.42;12.43;;;0.00;96.60;;;;;;5043917;28;20032;-71
2022/12/11 09:56:10;;;;;;;23.83;13.23;;;0.40;96.10;;;;;;5039761;28;20027;-72
2022/12/11 09:58:53;;;;;;;20.20;11.80;;;0.80;94.70;;;;;;5040364;28;20060;-70
2022/12/11 10:01:44;;;;;;;20.25;11.88;;;1.20;94.10;;;;;;5037455;28;20032;-70
2022/12/11 10:04:48;;;;;;;20.85;12.05;;;1.70;93.90;;;;;;5045794;28;20041;-74
2022/12/11 10:07:29;;;;;;;18.27;10.75;;;2.30;92.30;;;;;;5048138;28;20040;-69
2022/12/11 10:10:00;;;;;;;21.05;11.57;;;2.80;91.60;;;;;;5053404;28;20696;-70
2022/12/11 10:12:37;;;;;;;20.40;12.32;;;3.20;90.30;;;;;;5052957;28;20028;-72
2022/12/11 10:15:09;;;;;;;27.90;15.75;;;3.30;87.40;;;;;;5048610;28;20020;-71
2022/12/11 10:17:37;;;;;;;24.58;12.82;;;3.30;87.80;;;;;;5047488;28;20483;-71
2022/12/11 10:20:33;;;;;;;22.45;11.77;;;3.50;88.20;;;;;;5043795;28;20540;-70
2022/12/11 10:23:00;;;;;;;25.88;13.82;;;3.70;87.70;;;;;;5049727;28;20433;-70
2022/12/11 10:25:28;;;;;;;26.10;14.20;;;3.70;85.60;;;;;;5041761;28;20028;-69
2022/12/11 10:27:54;;;;;;;29.20;14.07;;;3.50;87.80;;;;;;5046201;28;20028;-70
2022/12/11 10:30:32;;;;;;;25.63;13.70;;;3.30;89.10;;;;;;5045414;28;20035;-70
2022/12/11 10:33:10;;;;;;;27.33;13.05;;;3.00;90.90;;;;;;5050880;28;20033;-71
2022/12/11 10:35:36;;;;;;;27.85;13.80;;;2.80;92.60;;;;;;5049765;28;20028;-70
2022/12/11 10:38:20;;;;;;;23.67;11.65;;;2.30;93.50;;;;;;5047604;28;20044;-70
2022/12/11 10:40:50;;;;;;;26.80;12.50;;;2.10;95.80;;;;;;5052658;28;20123;-71
2022/12/11 10:43:16;;;;;;;31.30;17.80;;;2.00;96.90;;;;;;5048513;28;20040;-71
2022/12/11 10:45:52;;;;;;;35.50;18.25;;;2.00;97.30;;;;;;5047283;28;20768;-71
2022/12/11 10:48:18;;;;;;;28.83;14.77;;;2.10;97.60;;;;;;5046515;28;20460;-71
2022/12/11 10:50:58;;;;;;;27.70;14.30;;;2.00;97.60;;;;;;5046010;28;20246;-71
2022/12/11 10:53:25;;;;;;;23.85;12.80;;;1.90;98.40;;;;;;5048963;28;20028;-71
2022/12/11 10:55:51;;;;;;;25.23;13.55;;;2.00;98.60;;;;;;5044072;28;20725;-71
2022/12/11 10:58:20;;;;;;;21.52;12.90;;;2.10;98.40;;;;;;4701013;28;10000108;-70
2022/12/11 11:00:59;;;;;;;27.50;13.70;;;2.20;98.40;;;;;;5041771;28;20280;-71
2022/12/11 11:03:26;;;;;;;22.10;11.57;;;2.30;98.20;;;;;;5039380;28;20493;-71
2022/12/11 11:06:13;;;;;;;28.75;14.05;;;2.40;97.90;;;;;;5043889;28;20025;-71
2022/12/11 11:08:43;;;;;;;29.00;15.63;;;2.50;97.90;;;;;;5052173;28;20036;-70
2022/12/11 11:11:33;;;;;;;31.60;17.13;;;2.60;97.40;;;;;;5053063;28;20759;-71
2022/12/11 11:14:18;;;;;;;29.20;16.63;;;2.70;97.60;;;;;;5038649;28;20050;-71
2022/12/11 11:16:46;;;;;;;22.05;12.23;;;2.70;97.60;;;;;;5050759;28;20284;-70
2022/12/11 11:19:32;;;;;;;20.42;11.05;;;2.80;97.80;;;;;;5041555;28;20037;-71
2022/12/11 11:22:01;;;;;;;18.90;9.85;;;2.90;98.30;;;;;;5051615;28;20085;-71
2022/12/11 11:24:41;;;;;;;18.33;9.38;;;2.70;98.20;;;;;;5054871;28;20083;-71
2022/12/11 11:27:32;;;;;;;13.30;9.07;;;2.70;98.90;;;;;;5055897;28;20108;-71
2022/12/11 11:30:04;;;;;;;16.52;8.10;;;2.80;98.90;;;;;;5041751;28;20032;-71
2022/12/11 11:32:37;;;;;;;16.17;8.60;;;2.80;99.10;;;;;;5052318;28;20123;-71
2022/12/11 11:35:24;;;;;;;15.27;8.52;;;2.90;99.00;;;;;;5052983;28;20055;-71
2022/12/11 11:38:10;;;;;;;15.35;8.63;;;2.90;99.30;;;;;;5040787;28;20033;-71
2022/12/11 11:40:41;;;;;;;20.20;9.93;;;3.00;99.60;;;;;;5053289;28;20182;-71
2022/12/11 11:43:30;;;;;;;21.50;11.80;;;3.10;99.60;;;;;;5045189;28;20076;-71
2022/12/11 11:46:10;;;;;;;17.65;10.75;;;3.20;99.50;;;;;;5047325;28;20052;-71
2022/12/11 11:48:44;;;;;;;18.20;9.65;;;3.30;99.50;;;;;;5055618;28;20025;-70
2022/12/11 11:51:29;;;;;;;19.63;10.52;;;3.40;98.90;;;;;;5053487;28;20133;-71
2022/12/11 11:53:58;;;;;;;16.30;10.73;;;3.40;98.60;;;;;;5037888;28;20102;-71
2022/12/11 11:56:33;;;;;;;18.35;10.55;;;3.40;98.60;;;;;;5054174;28;20024;-71
2022/12/11 11:59:05;;;;;;;15.05;8.43;;;3.50;98.40;;;;;;5052758;28;20040;-71
2022/12/11 12:01:31;;;;;;;16.60;7.95;;;3.40;98.60;;;;;;5049615;28;20107;-72
2022/12/11 12:03:57;;;;;;;13.02;7.43;;;3.40;98.60;;;;;;5048304;28;20113;-70
2022/12/11 12:06:26;;;;;;;14.90;8.57;;;3.40;99.10;;;;;;5051749;28;20430;-71
2022/12/11 12:08:56;;;;;;;14.48;8.68;;;3.30;99.60;;;;;;5051634;28;20530;-71
2022/12/11 12:11:31;;;;;;;15.43;9.10;;;3.20;99.50;;;;;;5052415;28;20082;-69
2022/12/11 12:14:20;;;;;;;12.82;8.52;;;3.10;99.90;;;;;;5050637;28;20028;-72
2022/12/11 12:17:04;;;;;;;176.52;51.75;;;3.10;99.90;;;;;;5053696;28;20279;-71
2022/12/11 12:19:33;;;;;;;138.32;45.03;;;3.10;99.90;;;;;;5050735;28;20375;-70
2022/12/11 12:22:13;;;;;;;55.95;22.40;;;3.10;99.90;;;;;;5048979;28;20384;-71
2022/12/11 12:25:20;;;;;;;41.13;19.50;;;3.00;99.90;;;;;;5050039;28;20249;-71
2022/12/11 12:28:06;;;;;;;62.72;28.85;;;3.00;99.90;;;;;;4989524;28;20083;-72
2022/12/11 12:30:48;;;;;;;24.80;14.75;;;3.10;99.90;;;;;;5047197;28;20071;-71
2022/12/11 12:33:24;;;;;;;25.10;14.77;;;3.10;99.90;;;;;;5050779;28;20517;-71
2022/12/11 12:36:10;;;;;;;26.23;15.00;;;3.20;99.80;;;;;;5051644;28;20605;-71
2022/12/11 12:38:53;;;;;;;23.65;14.52;;;3.20;99.90;;;;;;5056131;28;20115;-71
2022/12/11 12:41:33;;;;;;;36.90;21.25;;;3.20;99.90;;;;;;5047800;28;20033;-71
2022/12/11 12:44:12;;;;;;;32.30;20.50;;;3.20;99.90;;;;;;5030877;28;20657;-71
2022/12/11 12:46:52;;;;;;;38.65;22.77;;;3.30;99.90;;;;;;5052647;28;20032;-71
2022/12/11 12:49:32;;;;;;;62.05;32.47;;;3.40;99.70;;;;;;5050487;28;20107;-70
2022/12/11 12:51:59;;;;;;;43.10;25.65;;;3.60;99.20;;;;;;5050306;28;20535;-71
2022/12/11 12:54:27;;;;;;;28.42;16.85;;;3.70;98.80;;;;;;5053037;28;21306;-71